Ferryhill, United Kingdom
Current Conditions -  °F | °C
As of 7:50 PM on Saturday 25 Oct 2014 (Local Time) from EGNV Reporting Station
Few Clouds Few Clouds  
Wind Chill: 55°   Ceiling: Unl
Heat Index: 55°   Visibility: 6mi
Dew Point: 45°   Wind: 22mph
Humidity: 67%   Direction: 220°SW
Pressure: 29.85"   Gusts: NA
Location:  54.68°N, 1.55°W
Report Text: EGNV 251850Z 22019KT 9999 FEW029 13/07 Q1011
Loading
Personal Weather Stations






























Interactive Weather Map New forecast layout! Learn more

10-Day Weather Forecast

Advertisements
Track Severe Weather on mobile